sensor_id;sensor_type;location;lat;lon;timestamp;P1;durP1;ratioP1;P2;durP2;ratioP2
11222;SDS011;5668;52.012;8.724;2023-08-30T00:01:46;3.88;;;3.50;;
11222;SDS011;5668;52.012;8.724;2023-08-30T00:04:13;3.75;;;3.45;;
11222;SDS011;5668;52.012;8.724;2023-08-30T00:06:41;4.10;;;3.80;;
11222;SDS011;5668;52.012;8.724;2023-08-30T00:09:08;4.22;;;3.83;;
11222;SDS011;5668;52.012;8.724;2023-08-30T00:11:35;4.40;;;4.00;;
11222;SDS011;5668;52.012;8.724;2023-08-30T00:14:03;4.38;;;3.70;;
11222;SDS011;5668;52.012;8.724;2023-08-30T00:16:32;4.10;;;3.80;;
11222;SDS011;5668;52.012;8.724;2023-08-30T00:19:00;3.97;;;3.60;;
11222;SDS011;5668;52.012;8.724;2023-08-30T00:21:27;4.10;;;3.70;;
11222;SDS011;5668;52.012;8.724;2023-08-30T00:23:54;5.38;;;3.47;;
11222;SDS011;5668;52.012;8.724;2023-08-30T00:26:22;4.10;;;3.70;;
11222;SDS011;5668;52.012;8.724;2023-08-30T00:28:49;4.65;;;4.25;;
11222;SDS011;5668;52.012;8.724;2023-08-30T00:31:16;5.53;;;4.97;;
11222;SDS011;5668;52.012;8.724;2023-08-30T00:33:45;4.75;;;4.35;;
11222;SDS011;5668;52.012;8.724;2023-08-30T00:36:12;5.05;;;4.65;;
11222;SDS011;5668;52.012;8.724;2023-08-30T00:38:39;5.80;;;5.28;;
11222;SDS011;5668;52.012;8.724;2023-08-30T00:41:06;5.45;;;4.95;;
11222;SDS011;5668;52.012;8.724;2023-08-30T00:43:33;5.30;;;4.80;;
11222;SDS011;5668;52.012;8.724;2023-08-30T00:46:01;5.20;;;4.68;;
11222;SDS011;5668;52.012;8.724;2023-08-30T00:48:28;5.28;;;4.88;;
11222;SDS011;5668;52.012;8.724;2023-08-30T00:50:57;5.72;;;5.15;;
11222;SDS011;5668;52.012;8.724;2023-08-30T00:53:24;5.15;;;4.75;;
11222;SDS011;5668;52.012;8.724;2023-08-30T00:55:51;5.10;;;4.60;;
11222;SDS011;5668;52.012;8.724;2023-08-30T00:58:19;4.45;;;4.15;;
11222;SDS011;5668;52.012;8.724;2023-08-30T01:00:46;4.88;;;4.38;;
11222;SDS011;5668;52.012;8.724;2023-08-30T01:03:13;5.22;;;4.20;;
11222;SDS011;5668;52.012;8.724;2023-08-30T01:05:41;4.55;;;4.15;;
11222;SDS011;5668;52.012;8.724;2023-08-30T01:08:10;5.20;;;4.10;;
11222;SDS011;5668;52.012;8.724;2023-08-30T01:10:46;4.80;;;4.40;;
11222;SDS011;5668;52.012;8.724;2023-08-30T01:13:19;5.13;;;4.00;;
11222;SDS011;5668;52.012;8.724;2023-08-30T01:15:47;4.60;;;4.20;;
11222;SDS011;5668;52.012;8.724;2023-08-30T01:18:17;3.90;;;3.50;;
11222;SDS011;5668;52.012;8.724;2023-08-30T01:20:48;3.85;;;3.55;;
11222;SDS011;5668;52.012;8.724;2023-08-30T01:23:23;4.00;;;3.70;;
11222;SDS011;5668;52.012;8.724;2023-08-30T01:25:58;4.70;;;4.10;;
11222;SDS011;5668;52.012;8.724;2023-08-30T01:28:33;4.90;;;3.92;;
11222;SDS011;5668;52.012;8.724;2023-08-30T01:31:04;3.95;;;3.50;;
11222;SDS011;5668;52.012;8.724;2023-08-30T01:33:34;4.50;;;4.10;;
11222;SDS011;5668;52.012;8.724;2023-08-30T01:36:02;3.97;;;3.58;;
11222;SDS011;5668;52.012;8.724;2023-08-30T01:38:30;4.30;;;3.70;;
11222;SDS011;5668;52.012;8.724;2023-08-30T01:40:59;4.50;;;3.20;;
11222;SDS011;5668;52.012;8.724;2023-08-30T01:43:28;4.45;;;3.47;;
11222;SDS011;5668;52.012;8.724;2023-08-30T01:45:59;6.03;;;3.50;;
11222;SDS011;5668;52.012;8.724;2023-08-30T01:48:29;3.97;;;3.67;;
11222;SDS011;5668;52.012;8.724;2023-08-30T01:50:59;5.07;;;3.78;;
11222;SDS011;5668;52.012;8.724;2023-08-30T01:53:26;3.88;;;3.58;;
11222;SDS011;5668;52.012;8.724;2023-08-30T01:55:55;3.50;;;3.20;;
11222;SDS011;5668;52.012;8.724;2023-08-30T01:58:22;3.85;;;3.50;;
11222;SDS011;5668;52.012;8.724;2023-08-30T02:00:49;3.83;;;3.53;;
11222;SDS011;5668;52.012;8.724;2023-08-30T02:03:18;4.53;;;3.85;;
11222;SDS011;5668;52.012;8.724;2023-08-30T02:05:48;4.30;;;3.90;;
11222;SDS011;5668;52.012;8.724;2023-08-30T02:08:19;4.18;;;3.78;;
11222;SDS011;5668;52.012;8.724;2023-08-30T02:10:48;5.10;;;4.47;;
11222;SDS011;5668;52.012;8.724;2023-08-30T02:13:25;4.32;;;3.85;;
11222;SDS011;5668;52.012;8.724;2023-08-30T02:15:54;4.20;;;3.80;;
11222;SDS011;5668;52.012;8.724;2023-08-30T02:18:24;6.57;;;4.65;;
11222;SDS011;5668;52.012;8.724;2023-08-30T02:20:52;4.60;;;4.20;;
11222;SDS011;5668;52.012;8.724;2023-08-30T02:23:22;4.53;;;4.13;;
11222;SDS011;5668;52.012;8.724;2023-08-30T02:25:50;4.88;;;4.47;;
11222;SDS011;5668;52.012;8.724;2023-08-30T02:28:17;4.90;;;4.50;;
11222;SDS011;5668;52.012;8.724;2023-08-30T02:30:44;5.13;;;4.30;;
11222;SDS011;5668;52.012;8.724;2023-08-30T02:33:11;6.57;;;4.78;;
11222;SDS011;5668;52.012;8.724;2023-08-30T02:35:40;6.35;;;4.65;;
11222;SDS011;5668;52.012;8.724;2023-08-30T02:38:07;5.15;;;4.65;;
11222;SDS011;5668;52.012;8.724;2023-08-30T02:40:34;5.30;;;4.80;;
11222;SDS011;5668;52.012;8.724;2023-08-30T02:43:01;4.47;;;4.07;;
11222;SDS011;5668;52.012;8.724;2023-08-30T02:45:29;5.50;;;4.55;;
11222;SDS011;5668;52.012;8.724;2023-08-30T02:47:56;4.85;;;4.20;;
11222;SDS011;5668;52.012;8.724;2023-08-30T02:50:23;5.20;;;4.65;;
11222;SDS011;5668;52.012;8.724;2023-08-30T02:52:52;5.65;;;5.15;;
11222;SDS011;5668;52.012;8.724;2023-08-30T02:55:19;4.45;;;4.05;;
11222;SDS011;5668;52.012;8.724;2023-08-30T02:57:46;4.05;;;3.75;;
11222;SDS011;5668;52.012;8.724;2023-08-30T03:02:49;4.65;;;4.25;;
11222;SDS011;5668;52.012;8.724;2023-08-30T03:05:17;4.85;;;4.45;;
11222;SDS011;5668;52.012;8.724;2023-08-30T03:07:44;4.60;;;4.20;;
11222;SDS011;5668;52.012;8.724;2023-08-30T03:10:14;6.35;;;4.88;;
11222;SDS011;5668;52.012;8.724;2023-08-30T03:12:41;4.60;;;4.10;;
11222;SDS011;5668;52.012;8.724;2023-08-30T03:15:09;4.50;;;3.70;;
11222;SDS011;5668;52.012;8.724;2023-08-30T03:17:36;4.85;;;4.45;;
11222;SDS011;5668;52.012;8.724;2023-08-30T03:20:04;4.90;;;4.50;;
11222;SDS011;5668;52.012;8.724;2023-08-30T03:22:33;4.70;;;4.30;;
11222;SDS011;5668;52.012;8.724;2023-08-30T03:25:00;4.13;;;3.72;;
11222;SDS011;5668;52.012;8.724;2023-08-30T03:27:30;4.45;;;4.05;;
11222;SDS011;5668;52.012;8.724;2023-08-30T03:29:58;4.40;;;3.83;;
11222;SDS011;5668;52.012;8.724;2023-08-30T03:32:26;4.80;;;4.28;;
11222;SDS011;5668;52.012;8.724;2023-08-30T03:34:53;4.85;;;4.40;;
11222;SDS011;5668;52.012;8.724;2023-08-30T03:37:20;4.47;;;4.07;;
11222;SDS011;5668;52.012;8.724;2023-08-30T03:39:47;4.20;;;3.80;;
11222;SDS011;5668;52.012;8.724;2023-08-30T03:42:14;4.45;;;4.05;;
11222;SDS011;5668;52.012;8.724;2023-08-30T03:44:43;4.68;;;4.28;;
11222;SDS011;5668;52.012;8.724;2023-08-30T03:47:10;4.57;;;4.18;;
11222;SDS011;5668;52.012;8.724;2023-08-30T03:49:37;4.70;;;4.30;;
11222;SDS011;5668;52.012;8.724;2023-08-30T03:52:05;4.07;;;3.78;;
11222;SDS011;5668;52.012;8.724;2023-08-30T03:54:32;5.18;;;4.40;;
11222;SDS011;5668;52.012;8.724;2023-08-30T03:56:59;4.55;;;4.15;;
11222;SDS011;5668;52.012;8.724;2023-08-30T03:59:27;4.40;;;4.00;;
11222;SDS011;5668;52.012;8.724;2023-08-30T04:01:56;4.47;;;4.07;;
11222;SDS011;5668;52.012;8.724;2023-08-30T04:04:23;5.95;;;4.20;;
11222;SDS011;5668;52.012;8.724;2023-08-30T04:06:50;5.35;;;4.85;;
11222;SDS011;5668;52.012;8.724;2023-08-30T04:09:18;4.90;;;4.45;;
11222;SDS011;5668;52.012;8.724;2023-08-30T04:11:46;5.35;;;4.85;;
11222;SDS011;5668;52.012;8.724;2023-08-30T04:14:13;5.63;;;5.07;;
11222;SDS011;5668;52.012;8.724;2023-08-30T04:16:40;4.88;;;4.47;;
11222;SDS011;5668;52.012;8.724;2023-08-30T04:19:08;5.15;;;4.70;;
11222;SDS011;5668;52.012;8.724;2023-08-30T04:21:36;4.80;;;4.25;;
11222;SDS011;5668;52.012;8.724;2023-08-30T04:24:03;4.63;;;4.22;;
11222;SDS011;5668;52.012;8.724;2023-08-30T04:26:31;4.75;;;4.35;;
11222;SDS011;5668;52.012;8.724;2023-08-30T04:28:58;4.40;;;4.00;;
11222;SDS011;5668;52.012;8.724;2023-08-30T04:31:25;4.57;;;4.18;;
11222;SDS011;5668;52.012;8.724;2023-08-30T04:33:52;4.93;;;4.43;;
11222;SDS011;5668;52.012;8.724;2023-08-30T04:36:21;4.32;;;3.92;;
11222;SDS011;5668;52.012;8.724;2023-08-30T04:38:48;5.68;;;4.20;;
11222;SDS011;5668;52.012;8.724;2023-08-30T04:41:16;4.70;;;4.30;;
11222;SDS011;5668;52.012;8.724;2023-08-30T04:43:43;5.00;;;4.57;;
11222;SDS011;5668;52.012;8.724;2023-08-30T04:46:10;4.43;;;4.03;;
11222;SDS011;5668;52.012;8.724;2023-08-30T04:48:37;4.63;;;4.22;;
11222;SDS011;5668;52.012;8.724;2023-08-30T04:51:04;4.65;;;4.25;;
11222;SDS011;5668;52.012;8.724;2023-08-30T04:53:33;5.90;;;5.30;;
11222;SDS011;5668;52.012;8.724;2023-08-30T04:56:00;5.40;;;4.90;;
11222;SDS011;5668;52.012;8.724;2023-08-30T04:58:37;5.18;;;4.78;;
11222;SDS011;5668;52.012;8.724;2023-08-30T05:01:05;5.10;;;4.70;;
11222;SDS011;5668;52.012;8.724;2023-08-30T05:03:33;5.00;;;4.60;;
11222;SDS011;5668;52.012;8.724;2023-08-30T05:06:01;5.32;;;4.75;;
11222;SDS011;5668;52.012;8.724;2023-08-30T05:08:28;6.18;;;4.70;;
11222;SDS011;5668;52.012;8.724;2023-08-30T05:10:57;6.60;;;4.45;;
11222;SDS011;5668;52.012;8.724;2023-08-30T05:13:24;4.80;;;4.40;;
11222;SDS011;5668;52.012;8.724;2023-08-30T05:15:51;4.90;;;4.50;;
11222;SDS011;5668;52.012;8.724;2023-08-30T05:18:18;4.82;;;4.32;;
11222;SDS011;5668;52.012;8.724;2023-08-30T05:20:46;5.30;;;4.63;;
11222;SDS011;5668;52.012;8.724;2023-08-30T05:23:13;4.47;;;4.10;;
11222;SDS011;5668;52.012;8.724;2023-08-30T05:25:40;5.80;;;4.40;;
11222;SDS011;5668;52.012;8.724;2023-08-30T05:28:09;4.65;;;4.25;;
11222;SDS011;5668;52.012;8.724;2023-08-30T05:30:36;4.80;;;4.40;;
11222;SDS011;5668;52.012;8.724;2023-08-30T05:33:06;5.18;;;4.78;;
11222;SDS011;5668;52.012;8.724;2023-08-30T05:35:33;6.18;;;5.57;;
11222;SDS011;5668;52.012;8.724;2023-08-30T05:38:00;6.57;;;5.38;;
11222;SDS011;5668;52.012;8.724;2023-08-30T05:40:27;6.15;;;5.60;;
11222;SDS011;5668;52.012;8.724;2023-08-30T05:42:55;6.13;;;4.90;;
11222;SDS011;5668;52.012;8.724;2023-08-30T05:45:23;6.88;;;5.63;;
11222;SDS011;5668;52.012;8.724;2023-08-30T05:47:50;6.00;;;5.40;;
11222;SDS011;5668;52.012;8.724;2023-08-30T05:50:18;5.72;;;5.22;;
11222;SDS011;5668;52.012;8.724;2023-08-30T05:52:46;6.20;;;5.68;;
11222;SDS011;5668;52.012;8.724;2023-08-30T05:55:13;6.47;;;5.88;;
11222;SDS011;5668;52.012;8.724;2023-08-30T05:57:40;6.57;;;5.97;;
11222;SDS011;5668;52.012;8.724;2023-08-30T06:00:08;6.75;;;6.07;;
11222;SDS011;5668;52.012;8.724;2023-08-30T06:02:37;6.75;;;6.05;;
11222;SDS011;5668;52.012;8.724;2023-08-30T06:05:05;7.25;;;6.65;;
11222;SDS011;5668;52.012;8.724;2023-08-30T06:07:33;6.65;;;6.05;;
11222;SDS011;5668;52.012;8.724;2023-08-30T06:10:00;6.95;;;6.10;;
11222;SDS011;5668;52.012;8.724;2023-08-30T06:12:29;7.38;;;6.68;;
11222;SDS011;5668;52.012;8.724;2023-08-30T06:14:56;7.30;;;6.55;;
11222;SDS011;5668;52.012;8.724;2023-08-30T06:17:24;7.10;;;6.40;;
11222;SDS011;5668;52.012;8.724;2023-08-30T06:19:52;7.55;;;6.85;;
11222;SDS011;5668;52.012;8.724;2023-08-30T06:22:19;7.07;;;6.47;;
11222;SDS011;5668;52.012;8.724;2023-08-30T06:24:47;7.80;;;6.40;;
11222;SDS011;5668;52.012;8.724;2023-08-30T06:27:14;8.20;;;7.15;;
11222;SDS011;5668;52.012;8.724;2023-08-30T06:29:41;8.90;;;8.18;;
11222;SDS011;5668;52.012;8.724;2023-08-30T06:32:09;11.50;;;10.30;;
11222;SDS011;5668;52.012;8.724;2023-08-30T06:34:36;11.20;;;10.20;;
11222;SDS011;5668;52.012;8.724;2023-08-30T06:37:04;11.50;;;10.40;;
11222;SDS011;5668;52.012;8.724;2023-08-30T06:39:32;12.02;;;10.82;;
11222;SDS011;5668;52.012;8.724;2023-08-30T06:42:00;12.13;;;11.02;;
11222;SDS011;5668;52.012;8.724;2023-08-30T06:44:27;12.05;;;10.50;;
11222;SDS011;5668;52.012;8.724;2023-08-30T06:46:55;12.20;;;11.07;;
11222;SDS011;5668;52.012;8.724;2023-08-30T06:49:22;14.13;;;12.63;;
11222;SDS011;5668;52.012;8.724;2023-08-30T06:51:49;15.00;;;13.52;;
11222;SDS011;5668;52.012;8.724;2023-08-30T06:54:18;14.38;;;12.88;;
11222;SDS011;5668;52.012;8.724;2023-08-30T06:56:56;15.48;;;13.88;;
11222;SDS011;5668;52.012;8.724;2023-08-30T06:59:24;16.45;;;14.75;;
11222;SDS011;5668;52.012;8.724;2023-08-30T07:01:52;17.23;;;15.55;;
11222;SDS011;5668;52.012;8.724;2023-08-30T07:04:19;15.77;;;14.18;;
11222;SDS011;5668;52.012;8.724;2023-08-30T07:06:46;15.63;;;14.15;;
11222;SDS011;5668;52.012;8.724;2023-08-30T07:09:14;16.60;;;14.90;;
11222;SDS011;5668;52.012;8.724;2023-08-30T07:11:43;15.93;;;14.32;;
11222;SDS011;5668;52.012;8.724;2023-08-30T07:14:11;15.88;;;14.27;;
11222;SDS011;5668;52.012;8.724;2023-08-30T07:16:39;16.08;;;14.50;;
11222;SDS011;5668;52.012;8.724;2023-08-30T07:19:06;16.27;;;14.68;;
11222;SDS011;5668;52.012;8.724;2023-08-30T07:21:34;15.25;;;13.75;;
11222;SDS011;5668;52.012;8.724;2023-08-30T07:24:04;16.75;;;15.02;;
11222;SDS011;5668;52.012;8.724;2023-08-30T07:26:32;15.90;;;14.40;;
11222;SDS011;5668;52.012;8.724;2023-08-30T07:29:01;16.35;;;14.63;;
11222;SDS011;5668;52.012;8.724;2023-08-30T07:31:30;15.48;;;14.07;;
11222;SDS011;5668;52.012;8.724;2023-08-30T07:33:57;16.60;;;15.02;;
11222;SDS011;5668;52.012;8.724;2023-08-30T07:36:24;17.60;;;15.90;;
11222;SDS011;5668;52.012;8.724;2023-08-30T07:38:53;16.88;;;15.07;;
11222;SDS011;5668;52.012;8.724;2023-08-30T07:41:20;17.77;;;15.95;;
11222;SDS011;5668;52.012;8.724;2023-08-30T07:43:47;17.58;;;15.63;;
11222;SDS011;5668;52.012;8.724;2023-08-30T07:46:16;16.80;;;15.20;;
11222;SDS011;5668;52.012;8.724;2023-08-30T07:48:43;17.15;;;15.43;;
11222;SDS011;5668;52.012;8.724;2023-08-30T07:51:10;16.70;;;15.00;;
11222;SDS011;5668;52.012;8.724;2023-08-30T07:53:37;16.67;;;15.00;;
11222;SDS011;5668;52.012;8.724;2023-08-30T07:56:05;16.45;;;14.85;;
11222;SDS011;5668;52.012;8.724;2023-08-30T07:58:32;17.40;;;15.70;;
11222;SDS011;5668;52.012;8.724;2023-08-30T08:00:59;17.00;;;15.35;;
11222;SDS011;5668;52.012;8.724;2023-08-30T08:03:28;16.58;;;14.98;;
11222;SDS011;5668;52.012;8.724;2023-08-30T08:05:57;14.73;;;13.23;;
11222;SDS011;5668;52.012;8.724;2023-08-30T08:08:25;15.82;;;14.43;;
11222;SDS011;5668;52.012;8.724;2023-08-30T08:10:52;15.95;;;14.30;;
11222;SDS011;5668;52.012;8.724;2023-08-30T08:13:20;14.95;;;13.55;;
11222;SDS011;5668;52.012;8.724;2023-08-30T08:15:47;14.00;;;12.70;;
11222;SDS011;5668;52.012;8.724;2023-08-30T08:18:14;15.55;;;13.93;;
11222;SDS011;5668;52.012;8.724;2023-08-30T08:20:43;16.27;;;14.52;;
11222;SDS011;5668;52.012;8.724;2023-08-30T08:23:10;17.90;;;15.98;;
11222;SDS011;5668;52.012;8.724;2023-08-30T08:25:37;15.13;;;13.73;;
11222;SDS011;5668;52.012;8.724;2023-08-30T08:28:05;15.40;;;13.73;;
11222;SDS011;5668;52.012;8.724;2023-08-30T08:30:32;15.43;;;13.77;;
11222;SDS011;5668;52.012;8.724;2023-08-30T08:32:59;14.35;;;12.85;;
11222;SDS011;5668;52.012;8.724;2023-08-30T08:35:26;16.80;;;14.30;;
11222;SDS011;5668;52.012;8.724;2023-08-30T08:37:55;14.52;;;13.02;;
11222;SDS011;5668;52.012;8.724;2023-08-30T08:40:22;15.45;;;13.60;;
11222;SDS011;5668;52.012;8.724;2023-08-30T08:42:49;15.95;;;14.38;;
11222;SDS011;5668;52.012;8.724;2023-08-30T08:45:20;14.38;;;12.80;;
11222;SDS011;5668;52.012;8.724;2023-08-30T08:47:49;13.80;;;12.40;;
11222;SDS011;5668;52.012;8.724;2023-08-30T08:50:17;12.70;;;10.75;;
11222;SDS011;5668;52.012;8.724;2023-08-30T08:52:45;12.88;;;10.82;;
11222;SDS011;5668;52.012;8.724;2023-08-30T08:55:15;11.32;;;10.23;;
11222;SDS011;5668;52.012;8.724;2023-08-30T08:57:43;12.68;;;9.70;;
11222;SDS011;5668;52.012;8.724;2023-08-30T09:00:12;10.93;;;9.93;;
11222;SDS011;5668;52.012;8.724;2023-08-30T09:02:41;11.85;;;9.40;;
11222;SDS011;5668;52.012;8.724;2023-08-30T09:05:09;11.40;;;10.30;;
11222;SDS011;5668;52.012;8.724;2023-08-30T09:07:37;11.82;;;10.50;;
11222;SDS011;5668;52.012;8.724;2023-08-30T09:10:06;12.30;;;11.10;;
11222;SDS011;5668;52.012;8.724;2023-08-30T09:12:36;12.55;;;9.95;;
11222;SDS011;5668;52.012;8.724;2023-08-30T09:15:03;10.93;;;9.50;;
11222;SDS011;5668;52.012;8.724;2023-08-30T09:17:35;11.60;;;10.40;;
11222;SDS011;5668;52.012;8.724;2023-08-30T09:20:09;9.30;;;8.43;;
11222;SDS011;5668;52.012;8.724;2023-08-30T09:22:38;9.48;;;8.43;;
11222;SDS011;5668;52.012;8.724;2023-08-30T09:25:06;10.85;;;8.43;;
11222;SDS011;5668;52.012;8.724;2023-08-30T09:27:36;8.27;;;7.47;;
11222;SDS011;5668;52.012;8.724;2023-08-30T09:30:06;7.85;;;7.05;;
11222;SDS011;5668;52.012;8.724;2023-08-30T09:32:39;9.43;;;8.43;;
11222;SDS011;5668;52.012;8.724;2023-08-30T09:35:07;8.93;;;8.02;;
11222;SDS011;5668;52.012;8.724;2023-08-30T09:37:35;9.90;;;8.43;;
11222;SDS011;5668;52.012;8.724;2023-08-30T09:40:03;9.93;;;7.43;;
11222;SDS011;5668;52.012;8.724;2023-08-30T09:42:32;9.10;;;6.95;;
11222;SDS011;5668;52.012;8.724;2023-08-30T09:45:00;7.30;;;6.57;;
11222;SDS011;5668;52.012;8.724;2023-08-30T09:47:30;7.00;;;6.40;;
11222;SDS011;5668;52.012;8.724;2023-08-30T09:49:57;7.05;;;5.90;;
11222;SDS011;5668;52.012;8.724;2023-08-30T09:52:26;7.70;;;6.97;;
11222;SDS011;5668;52.012;8.724;2023-08-30T09:54:56;7.47;;;6.78;;
11222;SDS011;5668;52.012;8.724;2023-08-30T09:57:24;6.85;;;6.25;;
11222;SDS011;5668;52.012;8.724;2023-08-30T09:59:53;7.28;;;6.57;;
11222;SDS011;5668;52.012;8.724;2023-08-30T10:02:22;6.88;;;6.28;;
11222;SDS011;5668;52.012;8.724;2023-08-30T10:04:51;6.78;;;6.00;;
11222;SDS011;5668;52.012;8.724;2023-08-30T10:07:19;8.65;;;6.35;;
11222;SDS011;5668;52.012;8.724;2023-08-30T10:09:48;7.07;;;6.38;;
11222;SDS011;5668;52.012;8.724;2023-08-30T10:12:19;8.23;;;6.80;;
11222;SDS011;5668;52.012;8.724;2023-08-30T10:14:47;7.88;;;6.95;;
11222;SDS011;5668;52.012;8.724;2023-08-30T10:17:15;7.20;;;6.57;;
11222;SDS011;5668;52.012;8.724;2023-08-30T10:19:48;8.20;;;6.50;;
11222;SDS011;5668;52.012;8.724;2023-08-30T10:22:16;7.13;;;5.57;;
11222;SDS011;5668;52.012;8.724;2023-08-30T10:24:44;5.65;;;4.53;;
11222;SDS011;5668;52.012;8.724;2023-08-30T10:27:13;5.28;;;4.35;;
11222;SDS011;5668;52.012;8.724;2023-08-30T10:29:42;5.43;;;4.40;;
11222;SDS011;5668;52.012;8.724;2023-08-30T10:32:11;5.07;;;4.60;;
11222;SDS011;5668;52.012;8.724;2023-08-30T10:34:39;4.63;;;4.20;;
11222;SDS011;5668;52.012;8.724;2023-08-30T10:37:07;4.47;;;4.07;;
11222;SDS011;5668;52.012;8.724;2023-08-30T10:39:36;6.53;;;4.88;;
11222;SDS011;5668;52.012;8.724;2023-08-30T10:42:08;7.68;;;4.78;;
11222;SDS011;5668;52.012;8.724;2023-08-30T10:44:46;5.93;;;5.32;;
11222;SDS011;5668;52.012;8.724;2023-08-30T10:47:22;5.93;;;4.65;;
11222;SDS011;5668;52.012;8.724;2023-08-30T10:49:53;5.10;;;4.60;;
11222;SDS011;5668;52.012;8.724;2023-08-30T10:52:22;5.15;;;4.65;;
11222;SDS011;5668;52.012;8.724;2023-08-30T10:54:50;5.30;;;4.80;;
11222;SDS011;5668;52.012;8.724;2023-08-30T10:57:18;5.05;;;4.55;;
11222;SDS011;5668;52.012;8.724;2023-08-30T11:00:05;5.60;;;4.20;;
11222;SDS011;5668;52.012;8.724;2023-08-30T11:02:34;5.57;;;4.57;;
11222;SDS011;5668;52.012;8.724;2023-08-30T11:05:03;5.15;;;4.20;;
11222;SDS011;5668;52.012;8.724;2023-08-30T11:07:33;4.43;;;4.03;;
11222;SDS011;5668;52.012;8.724;2023-08-30T11:10:01;4.75;;;4.22;;
11222;SDS011;5668;52.012;8.724;2023-08-30T11:12:33;5.45;;;4.78;;
11222;SDS011;5668;52.012;8.724;2023-08-30T11:15:01;6.43;;;4.43;;
11222;SDS011;5668;52.012;8.724;2023-08-30T11:17:29;4.75;;;4.20;;
11222;SDS011;5668;52.012;8.724;2023-08-30T11:20:05;5.72;;;4.18;;
11222;SDS011;5668;52.012;8.724;2023-08-30T11:22:36;5.20;;;4.15;;
11222;SDS011;5668;52.012;8.724;2023-08-30T11:25:07;4.93;;;3.95;;
11222;SDS011;5668;52.012;8.724;2023-08-30T11:27:35;4.78;;;4.25;;
11222;SDS011;5668;52.012;8.724;2023-08-30T11:30:03;4.78;;;4.30;;
11222;SDS011;5668;52.012;8.724;2023-08-30T11:32:34;5.43;;;3.90;;
11222;SDS011;5668;52.012;8.724;2023-08-30T11:35:03;5.63;;;3.90;;
11222;SDS011;5668;52.012;8.724;2023-08-30T11:37:31;4.03;;;3.45;;
11222;SDS011;5668;52.012;8.724;2023-08-30T11:40:00;4.53;;;3.35;;
11222;SDS011;5668;52.012;8.724;2023-08-30T11:42:29;4.22;;;3.83;;
11222;SDS011;5668;52.012;8.724;2023-08-30T11:44:57;4.65;;;3.60;;
11222;SDS011;5668;52.012;8.724;2023-08-30T11:47:25;4.30;;;3.38;;
11222;SDS011;5668;52.012;8.724;2023-08-30T11:49:53;4.13;;;3.40;;
11222;SDS011;5668;52.012;8.724;2023-08-30T11:52:22;4.70;;;3.83;;
11222;SDS011;5668;52.012;8.724;2023-08-30T11:54:51;4.10;;;3.70;;
11222;SDS011;5668;52.012;8.724;2023-08-30T11:57:20;4.07;;;3.35;;
11222;SDS011;5668;52.012;8.724;2023-08-30T11:59:47;4.72;;;3.30;;
11222;SDS011;5668;52.012;8.724;2023-08-30T12:02:15;4.53;;;3.08;;
11222;SDS011;5668;52.012;8.724;2023-08-30T12:04:43;4.88;;;3.25;;
11222;SDS011;5668;52.012;8.724;2023-08-30T12:07:20;4.47;;;3.42;;
11222;SDS011;5668;52.012;8.724;2023-08-30T12:09:48;3.50;;;3.20;;
11222;SDS011;5668;52.012;8.724;2023-08-30T12:12:15;4.60;;;3.20;;
11222;SDS011;5668;52.012;8.724;2023-08-30T12:14:44;3.15;;;2.85;;
11222;SDS011;5668;52.012;8.724;2023-08-30T12:17:20;3.28;;;2.85;;
11222;SDS011;5668;52.012;8.724;2023-08-30T12:19:54;3.28;;;2.80;;
11222;SDS011;5668;52.012;8.724;2023-08-30T12:22:22;3.97;;;2.90;;
11222;SDS011;5668;52.012;8.724;2023-08-30T12:24:49;4.07;;;3.35;;
11222;SDS011;5668;52.012;8.724;2023-08-30T12:27:16;3.58;;;3.10;;
11222;SDS011;5668;52.012;8.724;2023-08-30T12:29:45;3.60;;;3.10;;
11222;SDS011;5668;52.012;8.724;2023-08-30T12:32:12;4.85;;;3.30;;
11222;SDS011;5668;52.012;8.724;2023-08-30T12:34:39;3.72;;;3.28;;
11222;SDS011;5668;52.012;8.724;2023-08-30T12:37:06;3.63;;;3.22;;
11222;SDS011;5668;52.012;8.724;2023-08-30T12:39:34;3.58;;;3.13;;
11222;SDS011;5668;52.012;8.724;2023-08-30T12:42:01;4.05;;;3.28;;
11222;SDS011;5668;52.012;8.724;2023-08-30T12:44:28;4.47;;;2.90;;
11222;SDS011;5668;52.012;8.724;2023-08-30T12:46:57;4.75;;;3.13;;
11222;SDS011;5668;52.012;8.724;2023-08-30T12:49:24;4.15;;;3.20;;
11222;SDS011;5668;52.012;8.724;2023-08-30T12:51:51;4.07;;;2.97;;
11222;SDS011;5668;52.012;8.724;2023-08-30T12:54:20;3.95;;;3.35;;
11222;SDS011;5668;52.012;8.724;2023-08-30T12:56:47;3.90;;;3.50;;
11222;SDS011;5668;52.012;8.724;2023-08-30T12:59:14;4.10;;;3.60;;
11222;SDS011;5668;52.012;8.724;2023-08-30T13:01:41;4.00;;;3.13;;
11222;SDS011;5668;52.012;8.724;2023-08-30T13:04:10;4.82;;;3.42;;
11222;SDS011;5668;52.012;8.724;2023-08-30T13:06:37;4.20;;;3.80;;
11222;SDS011;5668;52.012;8.724;2023-08-30T13:09:04;5.10;;;3.75;;
11222;SDS011;5668;52.012;8.724;2023-08-30T13:11:31;4.43;;;3.50;;
11222;SDS011;5668;52.012;8.724;2023-08-30T13:13:58;4.10;;;3.70;;
11222;SDS011;5668;52.012;8.724;2023-08-30T13:16:26;4.50;;;4.00;;
11222;SDS011;5668;52.012;8.724;2023-08-30T13:18:53;5.15;;;4.20;;
11222;SDS011;5668;52.012;8.724;2023-08-30T13:21:21;4.15;;;3.75;;
11222;SDS011;5668;52.012;8.724;2023-08-30T13:23:49;5.70;;;4.28;;
11222;SDS011;5668;52.012;8.724;2023-08-30T13:26:16;6.72;;;4.25;;
11222;SDS011;5668;52.012;8.724;2023-08-30T13:28:43;4.40;;;4.00;;
11222;SDS011;5668;52.012;8.724;2023-08-30T13:31:10;4.63;;;3.92;;
11222;SDS011;5668;52.012;8.724;2023-08-30T13:33:37;5.38;;;4.40;;
11222;SDS011;5668;52.012;8.724;2023-08-30T13:36:05;5.82;;;4.32;;
11222;SDS011;5668;52.012;8.724;2023-08-30T13:38:33;4.97;;;4.28;;
11222;SDS011;5668;52.012;8.724;2023-08-30T13:41:00;4.97;;;4.45;;
11222;SDS011;5668;52.012;8.724;2023-08-30T13:43:29;5.05;;;4.57;;
11222;SDS011;5668;52.012;8.724;2023-08-30T13:45:57;4.80;;;4.30;;
11222;SDS011;5668;52.012;8.724;2023-08-30T13:48:24;5.45;;;4.60;;
11222;SDS011;5668;52.012;8.724;2023-08-30T13:50:51;5.35;;;4.93;;
11222;SDS011;5668;52.012;8.724;2023-08-30T13:53:18;5.38;;;4.88;;
11222;SDS011;5668;52.012;8.724;2023-08-30T13:55:47;6.28;;;5.68;;
11222;SDS011;5668;52.012;8.724;2023-08-30T13:58:14;7.15;;;6.45;;
11222;SDS011;5668;52.012;8.724;2023-08-30T14:00:42;7.22;;;6.53;;
11222;SDS011;5668;52.012;8.724;2023-08-30T14:03:10;7.35;;;6.60;;
11222;SDS011;5668;52.012;8.724;2023-08-30T14:05:37;7.00;;;6.28;;
11222;SDS011;5668;52.012;8.724;2023-08-30T14:08:05;7.15;;;6.53;;
11222;SDS011;5668;52.012;8.724;2023-08-30T14:10:33;6.80;;;6.30;;
11222;SDS011;5668;52.012;8.724;2023-08-30T14:13:02;7.28;;;6.55;;
